Time;durP1;ratioP1;P1;durP2;ratioP2;P2;SDS_P1;SDS_P2;PMS_P1;PMS_P2;Temp;Humidity;BMP_temperature;BMP_pressure;BME280_temperature;BME280_humidity;BME280_pressure;Samples;Min_cycle;Max_cycle;Signal;HPM_P1;HPM_P2
2023/10/25 00:01:25;;;;;;;10.00;4.65;;;6.90;99.90;;;;;;5028939;28;20033;-66
2023/10/25 00:03:51;;;;;;;11.65;4.65;;;6.80;99.90;;;;;;5029207;28;20030;-67
2023/10/25 00:06:16;;;;;;;11.38;4.88;;;6.80;99.90;;;;;;5029039;28;20537;-66
2023/10/25 00:08:42;;;;;;;8.50;3.88;;;6.80;99.90;;;;;;5028692;28;20060;-66
2023/10/25 00:11:08;;;;;;;14.10;4.45;;;6.80;99.90;;;;;;5025167;28;20037;-66
2023/10/25 00:13:34;;;;;;;6.05;3.70;;;6.80;99.90;;;;;;5027954;28;20386;-66
2023/10/25 00:16:01;;;;;;;13.05;3.72;;;6.90;99.90;;;;;;5030826;28;20029;-66
2023/10/25 00:18:27;;;;;;;8.30;3.85;;;6.90;99.90;;;;;;5035059;28;20501;-67
2023/10/25 00:20:53;;;;;;;14.15;4.43;;;6.80;99.90;;;;;;5029413;28;20096;-66
2023/10/25 00:23:20;;;;;;;8.52;3.35;;;6.90;99.90;;;;;;5028238;28;20030;-67
2023/10/25 00:25:48;;;;;;;10.60;3.42;;;6.90;99.90;;;;;;5033287;28;20025;-67
2023/10/25 00:28:14;;;;;;;5.70;3.70;;;6.80;99.90;;;;;;5029185;28;20510;-66
2023/10/25 00:30:39;;;;;;;8.60;3.88;;;6.90;99.90;;;;;;5030361;28;20021;-67
2023/10/25 00:33:05;;;;;;;13.68;4.15;;;6.90;99.90;;;;;;5031572;28;20033;-66
2023/10/25 00:35:30;;;;;;;12.77;4.55;;;6.90;99.90;;;;;;5034846;28;20518;-67
2023/10/25 00:37:56;;;;;;;11.05;4.72;;;7.00;99.90;;;;;;5031309;28;20053;-67
2023/10/25 00:40:22;;;;;;;15.95;5.05;;;7.00;99.90;;;;;;5031728;28;20022;-67
2023/10/25 00:42:47;;;;;;;8.35;4.25;;;7.00;99.90;;;;;;5039025;28;20506;-67
2023/10/25 00:45:13;;;;;;;8.05;4.43;;;7.00;99.90;;;;;;5032155;28;20699;-66
2023/10/25 00:47:41;;;;;;;8.55;4.78;;;7.00;99.90;;;;;;5033003;28;20029;-67
2023/10/25 00:50:09;;;;;;;11.73;4.95;;;7.00;99.90;;;;;;5031619;28;20100;-67
2023/10/25 00:52:34;;;;;;;13.65;5.57;;;7.10;99.90;;;;;;5008905;28;20034;-66
2023/10/25 00:55:01;;;;;;;10.80;5.35;;;7.10;99.90;;;;;;5031899;28;20025;-67
2023/10/25 00:57:26;;;;;;;9.55;4.47;;;7.00;99.90;;;;;;5035886;28;20037;-67
2023/10/25 00:59:52;;;;;;;11.30;5.78;;;7.10;99.90;;;;;;5033644;28;20034;-67
2023/10/25 01:02:18;;;;;;;12.85;5.30;;;7.00;99.90;;;;;;5046584;28;20048;-66
2023/10/25 01:04:44;;;;;;;10.35;5.80;;;7.10;99.90;;;;;;5033631;28;20368;-67
2023/10/25 01:07:09;;;;;;;10.95;6.28;;;7.00;99.90;;;;;;5031734;28;20034;-67
2023/10/25 01:09:35;;;;;;;12.30;5.25;;;7.00;99.90;;;;;;5030447;28;20029;-67
2023/10/25 01:12:01;;;;;;;14.48;5.95;;;7.10;99.90;;;;;;5032427;28;20033;-67
2023/10/25 01:14:29;;;;;;;10.43;5.50;;;7.10;99.90;;;;;;5031500;28;20368;-66
2023/10/25 01:16:55;;;;;;;20.45;5.95;;;7.10;99.90;;;;;;5032387;28;20083;-67
2023/10/25 01:19:20;;;;;;;11.35;5.47;;;7.10;99.90;;;;;;5031059;28;20034;-67
2023/10/25 01:21:46;;;;;;;16.20;6.28;;;7.00;99.90;;;;;;5034640;28;20109;-67
2023/10/25 01:24:12;;;;;;;13.45;5.75;;;7.00;99.90;;;;;;5026000;28;20051;-67
2023/10/25 01:26:37;;;;;;;10.52;5.55;;;7.10;99.90;;;;;;5029723;28;20478;-67
2023/10/25 01:29:03;;;;;;;9.75;5.38;;;7.00;99.90;;;;;;5031913;28;20022;-67
2023/10/25 01:31:29;;;;;;;12.32;6.32;;;7.00;99.90;;;;;;5030109;28;20026;-67
2023/10/25 01:33:55;;;;;;;16.63;6.35;;;7.00;99.90;;;;;;5032838;28;20449;-67
2023/10/25 01:36:20;;;;;;;16.80;5.43;;;7.10;99.90;;;;;;5029549;28;20626;-67
2023/10/25 01:38:46;;;;;;;12.35;6.03;;;7.20;99.90;;;;;;5033870;28;20025;-67
2023/10/25 01:41:16;;;;;;;12.40;5.85;;;7.10;99.90;;;;;;5028964;28;20478;-67
2023/10/25 01:43:42;;;;;;;10.07;5.40;;;7.20;99.90;;;;;;5029144;28;20109;-67
2023/10/25 01:46:08;;;;;;;15.82;6.50;;;7.20;99.90;;;;;;5027934;28;20903;-67
2023/10/25 01:48:35;;;;;;;12.50;5.95;;;7.20;99.90;;;;;;5031555;28;20013;-67
2023/10/25 01:51:01;;;;;;;15.75;5.78;;;7.20;99.90;;;;;;5032095;28;20479;-67
2023/10/25 01:53:27;;;;;;;12.70;5.85;;;7.20;99.90;;;;;;5030172;28;20120;-67
2023/10/25 01:55:53;;;;;;;12.13;5.75;;;7.20;99.90;;;;;;5033176;28;20036;-67
2023/10/25 01:58:18;;;;;;;14.63;6.95;;;7.20;99.90;;;;;;5032671;28;20029;-67
2023/10/25 02:00:44;;;;;;;10.00;5.32;;;7.20;99.90;;;;;;5033235;28;20029;-67
2023/10/25 02:03:09;;;;;;;15.98;6.28;;;7.20;99.90;;;;;;5027366;28;20029;-67
2023/10/25 02:05:35;;;;;;;14.85;6.00;;;7.10;99.90;;;;;;5030374;28;20018;-67
2023/10/25 02:08:00;;;;;;;11.50;5.20;;;7.10;99.90;;;;;;5027320;28;20026;-67
2023/10/25 02:10:26;;;;;;;15.43;6.28;;;7.00;99.90;;;;;;5029637;28;20108;-67
2023/10/25 02:12:52;;;;;;;11.52;5.75;;;7.00;99.90;;;;;;5027513;28;20033;-67
2023/10/25 02:15:17;;;;;;;15.38;6.47;;;7.00;99.90;;;;;;5032611;28;20032;-67
2023/10/25 02:17:43;;;;;;;12.13;6.32;;;7.00;99.90;;;;;;5032097;28;20076;-67
2023/10/25 02:20:09;;;;;;;10.15;5.43;;;7.00;99.90;;;;;;5032161;28;20022;-67
2023/10/25 02:22:34;;;;;;;18.35;6.80;;;6.90;99.90;;;;;;5024259;28;20038;-67
2023/10/25 02:25:00;;;;;;;15.63;6.72;;;6.90;99.90;;;;;;5031167;28;20025;-67
2023/10/25 02:27:25;;;;;;;13.93;6.22;;;6.80;99.90;;;;;;5031628;28;20383;-67
2023/10/25 02:29:51;;;;;;;8.85;5.88;;;6.70;99.90;;;;;;5031992;28;20021;-67
2023/10/25 02:32:17;;;;;;;17.80;5.95;;;6.60;99.90;;;;;;5029972;28;20075;-67
2023/10/25 02:34:42;;;;;;;16.90;5.95;;;6.60;99.90;;;;;;5030899;28;21832;-67
2023/10/25 02:37:08;;;;;;;9.90;5.82;;;6.60;99.90;;;;;;5030528;28;20380;-67
2023/10/25 02:39:33;;;;;;;14.00;6.55;;;6.50;99.90;;;;;;5029285;28;20104;-67
2023/10/25 02:41:59;;;;;;;12.50;6.68;;;6.50;99.90;;;;;;5028810;28;20033;-67
2023/10/25 02:44:25;;;;;;;15.55;7.20;;;6.60;99.90;;;;;;5028798;28;20494;-67
2023/10/25 02:46:50;;;;;;;20.33;7.95;;;6.70;99.90;;;;;;5027918;28;20482;-68
2023/10/25 02:49:16;;;;;;;14.02;7.15;;;6.60;99.90;;;;;;5031494;28;20022;-68
2023/10/25 02:51:41;;;;;;;16.65;7.50;;;6.60;99.90;;;;;;5031021;28;20483;-66
2023/10/25 02:54:07;;;;;;;15.88;7.22;;;6.60;99.90;;;;;;5030047;28;20461;-67
2023/10/25 02:56:32;;;;;;;18.67;7.50;;;6.50;99.90;;;;;;5031628;28;20092;-67
2023/10/25 02:58:59;;;;;;;13.20;7.00;;;6.50;99.90;;;;;;5032300;28;20026;-67
2023/10/25 03:01:24;;;;;;;15.70;7.45;;;6.40;99.90;;;;;;5030192;28;20048;-67
2023/10/25 03:03:51;;;;;;;19.58;9.43;;;6.40;99.90;;;;;;5029288;28;20491;-67
2023/10/25 03:06:17;;;;;;;17.02;7.38;;;6.50;99.90;;;;;;5028882;28;20070;-67
2023/10/25 03:08:42;;;;;;;22.13;8.57;;;6.50;99.90;;;;;;5030689;28;20483;-67
2023/10/25 03:11:08;;;;;;;19.70;8.98;;;6.60;99.90;;;;;;5031795;28;20033;-67
2023/10/25 03:13:33;;;;;;;19.90;9.73;;;6.60;99.90;;;;;;5029650;28;20493;-67
2023/10/25 03:15:59;;;;;;;21.33;9.02;;;6.70;99.90;;;;;;5030566;28;20072;-67
2023/10/25 03:18:25;;;;;;;18.80;7.75;;;6.70;99.90;;;;;;5026688;28;20020;-67
2023/10/25 03:20:50;;;;;;;20.10;8.75;;;6.60;99.90;;;;;;5031158;28;20548;-67
2023/10/25 03:23:16;;;;;;;18.90;7.35;;;6.60;99.90;;;;;;5028379;28;20033;-67
2023/10/25 03:25:41;;;;;;;20.80;8.18;;;6.50;99.90;;;;;;5031156;28;20515;-67
2023/10/25 03:28:07;;;;;;;15.98;7.95;;;6.50;99.90;;;;;;5029385;28;20372;-67
2023/10/25 03:30:35;;;;;;;15.77;7.45;;;6.40;99.90;;;;;;5029208;28;20018;-67
2023/10/25 03:33:00;;;;;;;17.90;7.28;;;6.50;99.90;;;;;;5030083;28;20394;-67
2023/10/25 03:35:27;;;;;;;20.08;7.82;;;6.50;99.90;;;;;;5028353;28;20064;-67
2023/10/25 03:37:52;;;;;;;21.42;8.65;;;6.50;99.90;;;;;;5030107;28;20022;-67
2023/10/25 03:40:18;;;;;;;23.25;8.80;;;6.50;99.90;;;;;;5028335;28;20083;-67
2023/10/25 03:42:43;;;;;;;16.40;7.63;;;6.50;99.90;;;;;;5032601;28;20030;-67
2023/10/25 03:45:09;;;;;;;19.73;7.95;;;6.50;99.90;;;;;;5023901;28;20059;-67
2023/10/25 03:47:37;;;;;;;19.33;7.88;;;6.40;99.90;;;;;;5029724;28;20029;-67
2023/10/25 03:50:06;;;;;;;18.08;7.00;;;6.40;99.90;;;;;;5032242;28;20026;-67
2023/10/25 03:52:32;;;;;;;18.15;7.30;;;6.40;99.90;;;;;;5030181;28;20029;-67
2023/10/25 03:54:58;;;;;;;14.80;7.43;;;6.30;99.90;;;;;;5022907;28;20022;-67
2023/10/25 03:57:23;;;;;;;17.48;7.65;;;6.30;99.90;;;;;;5023683;28;20402;-67
2023/10/25 03:59:49;;;;;;;22.08;8.32;;;6.30;99.90;;;;;;5023572;28;20037;-67
2023/10/25 04:02:15;;;;;;;17.48;8.45;;;6.30;99.90;;;;;;5025320;28;20030;-67
2023/10/25 04:04:40;;;;;;;28.33;9.98;;;6.40;99.90;;;;;;5025054;28;20029;-67
2023/10/25 04:07:06;;;;;;;22.30;8.75;;;6.30;99.90;;;;;;5023597;28;20032;-67
2023/10/25 04:09:31;;;;;;;19.65;8.15;;;6.40;99.90;;;;;;5025703;28;20026;-67
2023/10/25 04:11:57;;;;;;;19.38;8.82;;;6.40;99.90;;;;;;5029027;28;20068;-67
2023/10/25 04:14:22;;;;;;;25.65;8.88;;;6.40;99.90;;;;;;5030005;28;20095;-67
2023/10/25 04:16:48;;;;;;;23.52;8.20;;;6.40;99.90;;;;;;5027951;28;20061;-67
2023/10/25 04:19:14;;;;;;;16.55;7.40;;;6.40;99.90;;;;;;5029089;28;20502;-68
2023/10/25 04:21:40;;;;;;;31.52;8.65;;;6.40;99.90;;;;;;5029312;28;20030;-66
2023/10/25 04:24:07;;;;;;;16.90;8.73;;;6.40;99.90;;;;;;5028311;28;20024;-66
2023/10/25 04:26:32;;;;;;;24.45;8.70;;;6.40;99.90;;;;;;5024080;28;20021;-67
2023/10/25 04:28:58;;;;;;;23.00;8.65;;;6.50;99.90;;;;;;5026364;28;20100;-67
2023/10/25 04:31:23;;;;;;;25.17;8.65;;;6.60;99.90;;;;;;5030669;28;20021;-67
2023/10/25 04:33:49;;;;;;;23.08;8.48;;;6.60;99.90;;;;;;5027709;28;20034;-66
2023/10/25 04:36:14;;;;;;;21.52;9.05;;;6.60;99.90;;;;;;5027765;28;20503;-67
2023/10/25 04:38:41;;;;;;;21.27;8.75;;;6.70;99.90;;;;;;5026795;28;20105;-67
2023/10/25 04:41:07;;;;;;;18.33;8.77;;;6.60;99.90;;;;;;5027471;28;20559;-66
2023/10/25 04:43:33;;;;;;;26.13;9.30;;;6.60;99.90;;;;;;5027807;28;20105;-67
2023/10/25 04:46:00;;;;;;;26.73;9.35;;;6.70;99.90;;;;;;5026080;28;20390;-66
2023/10/25 04:48:25;;;;;;;21.25;9.40;;;6.70;99.90;;;;;;5028231;28;20056;-67
2023/10/25 04:50:51;;;;;;;33.42;11.00;;;6.70;99.90;;;;;;5030381;28;20040;-66
2023/10/25 04:53:16;;;;;;;26.35;9.63;;;6.80;99.90;;;;;;5033198;28;20432;-66
2023/10/25 04:55:46;;;;;;;30.48;9.60;;;6.80;99.90;;;;;;5029606;28;20021;-67
2023/10/25 04:58:11;;;;;;;27.73;9.60;;;6.70;99.90;;;;;;5033306;28;20037;-67
2023/10/25 05:00:37;;;;;;;27.88;10.20;;;6.70;99.90;;;;;;5029941;28;20041;-67
2023/10/25 05:03:05;;;;;;;27.55;9.95;;;6.80;99.90;;;;;;5029174;28;20057;-67
2023/10/25 05:05:32;;;;;;;23.85;9.30;;;6.90;99.90;;;;;;5026233;28;20558;-67
2023/10/25 05:07:58;;;;;;;27.23;9.98;;;6.90;99.90;;;;;;5027752;28;20053;-67
2023/10/25 05:10:24;;;;;;;27.90;9.95;;;7.00;99.90;;;;;;5027115;28;20053;-67
2023/10/25 05:12:50;;;;;;;23.60;10.38;;;7.00;99.90;;;;;;5029365;28;20119;-67
2023/10/25 05:15:18;;;;;;;18.38;8.90;;;7.00;99.90;;;;;;5034063;28;20582;-67
2023/10/25 05:17:45;;;;;;;20.77;8.95;;;7.00;99.90;;;;;;5034377;28;20375;-67
2023/10/25 05:20:11;;;;;;;26.67;10.05;;;7.10;99.90;;;;;;5032388;28;20120;-67
2023/10/25 05:22:39;;;;;;;26.65;9.63;;;7.10;99.90;;;;;;5011767;28;20415;-67
2023/10/25 05:25:07;;;;;;;24.13;8.55;;;7.10;99.90;;;;;;5019113;28;20038;-67
2023/10/25 05:27:34;;;;;;;28.38;8.93;;;7.10;99.90;;;;;;5021158;28;21182;-66
2023/10/25 05:30:03;;;;;;;18.35;8.40;;;7.10;99.90;;;;;;5019528;28;20060;-66
2023/10/25 05:32:33;;;;;;;17.45;7.80;;;7.00;99.90;;;;;;5018392;28;20033;-67
2023/10/25 05:35:03;;;;;;;22.77;8.13;;;7.10;99.90;;;;;;5017362;28;20040;-67
2023/10/25 05:37:29;;;;;;;18.25;7.43;;;7.10;99.90;;;;;;5019307;28;20064;-67
2023/10/25 05:39:56;;;;;;;18.73;7.88;;;7.00;99.90;;;;;;5017936;28;20376;-67
2023/10/25 05:42:23;;;;;;;14.35;6.93;;;6.90;99.90;;;;;;5017890;28;20033;-67
2023/10/25 05:44:51;;;;;;;18.65;6.72;;;6.90;99.90;;;;;;5018964;28;20116;-66
2023/10/25 05:47:17;;;;;;;17.55;7.05;;;6.90;99.90;;;;;;5018988;28;20041;-67
2023/10/25 05:49:43;;;;;;;19.85;7.45;;;7.00;99.90;;;;;;5017249;28;20080;-66
2023/10/25 05:52:10;;;;;;;20.83;6.22;;;7.00;99.90;;;;;;5018063;28;20049;-66
2023/10/25 05:54:37;;;;;;;16.30;5.93;;;7.00;99.90;;;;;;5020695;28;20071;-67
2023/10/25 05:57:03;;;;;;;14.70;6.45;;;7.00;99.90;;;;;;5018095;28;20037;-66
2023/10/25 05:59:29;;;;;;;15.07;6.78;;;7.00;99.90;;;;;;5018667;28;20204;-68
2023/10/25 06:02:11;;;;;;;12.55;5.93;;;7.00;99.90;;;;;;5017178;28;21204;-66
2023/10/25 06:04:39;;;;;;;14.13;6.13;;;7.00;99.90;;;;;;5020550;28;20069;-67
2023/10/25 06:07:06;;;;;;;12.95;6.22;;;7.10;99.90;;;;;;5018205;28;20526;-66
2023/10/25 06:09:32;;;;;;;15.75;5.82;;;7.10;99.90;;;;;;5020364;28;20033;-66
2023/10/25 06:11:58;;;;;;;23.38;5.88;;;7.10;99.90;;;;;;5017708;28;20138;-66
2023/10/25 06:14:24;;;;;;;12.07;5.95;;;7.10;99.90;;;;;;5017438;28;20037;-66
2023/10/25 06:16:50;;;;;;;15.32;5.28;;;7.10;99.90;;;;;;5019751;28;20128;-67
2023/10/25 06:19:15;;;;;;;12.15;5.75;;;7.10;99.90;;;;;;5017394;28;20152;-67
2023/10/25 06:21:41;;;;;;;12.45;5.20;;;7.10;99.90;;;;;;5007887;28;20060;-67
2023/10/25 06:24:07;;;;;;;14.02;4.90;;;7.10;99.90;;;;;;5018544;28;20033;-66
2023/10/25 06:26:33;;;;;;;22.25;6.30;;;7.00;99.90;;;;;;5018976;28;20029;-66
2023/10/25 06:28:59;;;;;;;14.95;6.28;;;7.00;99.90;;;;;;5017503;28;20029;-67
2023/10/25 06:31:24;;;;;;;64.60;18.65;;;7.00;99.90;;;;;;5017748;28;20061;-67
2023/10/25 06:33:50;;;;;;;57.22;19.15;;;7.00;99.90;;;;;;5016996;28;20065;-67
2023/10/25 06:36:16;;;;;;;23.45;7.43;;;7.10;99.90;;;;;;5016814;28;21119;-67
2023/10/25 06:38:42;;;;;;;15.10;8.10;;;7.20;99.90;;;;;;5019243;28;20061;-67
2023/10/25 06:41:19;;;;;;;25.98;13.23;;;7.20;99.90;;;;;;5016272;28;20688;-67
2023/10/25 06:43:45;;;;;;;14.35;7.10;;;7.30;99.90;;;;;;5018774;28;20056;-66
2023/10/25 06:46:14;;;;;;;18.83;6.68;;;7.40;99.90;;;;;;5017750;28;20569;-67
2023/10/25 06:48:40;;;;;;;29.35;11.32;;;7.40;99.90;;;;;;5016628;28;20092;-67
2023/10/25 06:51:07;;;;;;;8.15;4.70;;;7.50;99.90;;;;;;5016366;28;20030;-67
2023/10/25 06:53:33;;;;;;;13.93;4.57;;;7.60;99.90;;;;;;5016466;28;20037;-67
2023/10/25 06:55:59;;;;;;;10.75;4.30;;;7.70;99.90;;;;;;5016009;28;20561;-67
2023/10/25 06:58:25;;;;;;;12.32;5.43;;;7.70;99.90;;;;;;5016555;28;20033;-67
2023/10/25 07:00:55;;;;;;;8.30;4.68;;;7.80;99.90;;;;;;5015001;28;20045;-67
2023/10/25 07:03:26;;;;;;;11.60;4.60;;;7.90;99.90;;;;;;5016616;28;20141;-67
2023/10/25 07:05:55;;;;;;;10.07;3.55;;;8.10;99.90;;;;;;5016852;28;20021;-67
2023/10/25 07:08:21;;;;;;;9.02;4.10;;;8.20;99.90;;;;;;5016720;28;20111;-67
2023/10/25 07:10:47;;;;;;;4.93;3.25;;;8.30;99.90;;;;;;5017073;28;20139;-67
2023/10/25 07:13:12;;;;;;;26.10;10.95;;;8.30;99.90;;;;;;5016008;28;20192;-67
2023/10/25 07:15:38;;;;;;;12.15;5.20;;;8.30;99.90;;;;;;5018470;28;20048;-67
2023/10/25 07:18:04;;;;;;;5.72;2.75;;;8.40;99.90;;;;;;5018014;28;20041;-67
2023/10/25 07:20:31;;;;;;;9.45;3.80;;;8.40;99.90;;;;;;5017557;28;20112;-67
2023/10/25 07:22:57;;;;;;;12.05;6.05;;;8.50;99.90;;;;;;5005677;28;20141;-67
2023/10/25 07:25:22;;;;;;;12.65;5.53;;;8.50;99.90;;;;;;5016729;28;20112;-67
2023/10/25 07:27:48;;;;;;;14.82;3.38;;;8.60;99.90;;;;;;5014331;28;20037;-67
2023/10/25 07:30:13;;;;;;;6.70;3.10;;;8.60;99.90;;;;;;5014449;28;20133;-67
2023/10/25 07:32:40;;;;;;;7.65;3.30;;;8.60;99.90;;;;;;5016202;28;20033;-68
2023/10/25 07:35:05;;;;;;;6.05;4.30;;;8.70;99.90;;;;;;5017069;28;20093;-67
2023/10/25 07:37:32;;;;;;;7.30;2.92;;;8.70;99.90;;;;;;5015849;28;20037;-67
2023/10/25 07:39:58;;;;;;;10.60;3.00;;;8.70;99.90;;;;;;5014332;28;20044;-67
2023/10/25 07:42:24;;;;;;;5.93;3.17;;;8.80;99.90;;;;;;5014095;28;20480;-67
2023/10/25 07:44:50;;;;;;;5.63;1.77;;;8.80;99.90;;;;;;5016479;28;20029;-67
2023/10/25 07:47:17;;;;;;;7.05;2.10;;;8.90;99.90;;;;;;5017364;28;20087;-67
2023/10/25 07:49:45;;;;;;;9.82;2.40;;;9.00;99.90;;;;;;5014324;28;20030;-67
2023/10/25 07:52:11;;;;;;;5.80;2.00;;;9.10;99.90;;;;;;5015046;28;20454;-68
2023/10/25 07:54:37;;;;;;;11.23;1.70;;;9.30;99.90;;;;;;5016928;28;20090;-67
2023/10/25 07:57:03;;;;;;;4.47;1.25;;;9.30;99.90;;;;;;5014893;28;20026;-67
2023/10/25 07:59:29;;;;;;;6.78;1.60;;;9.30;99.90;;;;;;5015996;28;20466;-67
2023/10/25 08:01:56;;;;;;;8.50;4.72;;;9.50;99.90;;;;;;5016844;28;20095;-67
2023/10/25 08:04:22;;;;;;;4.18;1.60;;;9.40;99.90;;;;;;5015336;28;20117;-67
2023/10/25 08:06:48;;;;;;;8.98;2.63;;;9.50;99.90;;;;;;5018538;28;20148;-67
2023/10/25 08:09:13;;;;;;;9.30;5.07;;;9.60;99.90;;;;;;5005482;28;20056;-67
2023/10/25 08:11:39;;;;;;;3.00;1.92;;;9.70;99.90;;;;;;5001145;28;20041;-67
2023/10/25 08:14:05;;;;;;;3.58;1.50;;;9.80;99.90;;;;;;4998321;28;20036;-67
2023/10/25 08:16:30;;;;;;;2.72;1.35;;;9.90;99.90;;;;;;5005364;28;20025;-67
2023/10/25 08:18:56;;;;;;;7.93;3.53;;;10.00;99.90;;;;;;5005170;28;20026;-67
2023/10/25 08:21:22;;;;;;;11.77;8.50;;;9.90;99.90;;;;;;5004311;28;20030;-67
2023/10/25 08:23:51;;;;;;;27.05;18.27;;;10.00;99.90;;;;;;4987483;28;20120;-67
2023/10/25 08:26:18;;;;;;;9.35;4.75;;;10.20;99.90;;;;;;5005622;28;20113;-67
2023/10/25 08:28:44;;;;;;;5.38;3.67;;;10.30;99.90;;;;;;4998599;28;20018;-67
2023/10/25 08:31:13;;;;;;;10.80;5.68;;;10.40;99.90;;;;;;5002330;28;20041;-68
2023/10/25 08:33:40;;;;;;;14.95;6.10;;;10.50;99.90;;;;;;5005047;28;20064;-68
2023/10/25 08:36:06;;;;;;;7.70;1.90;;;10.60;99.90;;;;;;5003508;28;20030;-68
2023/10/25 08:38:32;;;;;;;2.20;1.45;;;10.60;99.90;;;;;;5010679;28;20034;-68
2023/10/25 08:41:05;;;;;;;3.80;1.10;;;10.70;99.90;;;;;;5005551;28;20030;-68
2023/10/25 08:43:33;;;;;;;2.58;1.38;;;10.70;99.90;;;;;;5004441;28;20045;-68
2023/10/25 08:46:03;;;;;;;3.45;1.42;;;10.70;99.90;;;;;;5001985;28;20034;-68
2023/10/25 08:48:30;;;;;;;7.95;2.63;;;10.70;99.90;;;;;;5003782;28;20030;-68
2023/10/25 08:50:56;;;;;;;5.40;1.38;;;10.80;99.90;;;;;;5014230;28;20156;-68
2023/10/25 08:53:24;;;;;;;2.65;1.20;;;10.80;99.90;;;;;;5006818;28;20124;-67
2023/10/25 08:55:55;;;;;;;5.95;1.58;;;10.80;99.90;;;;;;5009783;28;20440;-68
2023/10/25 08:58:21;;;;;;;4.68;2.67;;;10.80;99.90;;;;;;5004988;28;20029;-67
2023/10/25 09:00:48;;;;;;;6.50;1.95;;;10.90;99.90;;;;;;5007201;28;20033;-67
2023/10/25 09:03:32;;;;;;;16.48;7.53;;;10.90;99.90;;;;;;5006137;28;20041;-67
2023/10/25 09:05:59;;;;;;;7.95;3.97;;;10.90;99.90;;;;;;5020747;28;20034;-67
2023/10/25 09:08:25;;;;;;;3.38;2.58;;;10.80;99.90;;;;;;5030904;28;20042;-67
2023/10/25 09:11:01;;;;;;;3.13;2.17;;;10.70;99.90;;;;;;5007495;28;20060;-67
2023/10/25 09:13:31;;;;;;;5.25;1.95;;;10.70;99.90;;;;;;5003245;28;21799;-67
2023/10/25 09:16:04;;;;;;;4.95;3.25;;;10.60;99.90;;;;;;5006464;28;20117;-67
2023/10/25 09:18:31;;;;;;;3.63;1.92;;;10.50;99.90;;;;;;5005794;28;20117;-67
2023/10/25 09:20:57;;;;;;;3.30;1.83;;;10.50;99.90;;;;;;5007005;28;20037;-68
2023/10/25 09:23:23;;;;;;;7.05;1.83;;;10.50;99.90;;;;;;4972364;28;20053;-68
2023/10/25 09:25:50;;;;;;;3.20;1.40;;;10.50;99.90;;;;;;4986315;28;20031;-68
2023/10/25 09:28:31;;;;;;;4.93;2.17;;;10.50;99.90;;;;;;4998329;28;20038;-68
2023/10/25 09:30:59;;;;;;;22.83;10.27;;;10.50;99.90;;;;;;4987745;28;20372;-68
2023/10/25 09:33:29;;;;;;;12.52;6.85;;;10.50;99.90;;;;;;4986484;28;20096;-67
2023/10/25 09:35:56;;;;;;;11.90;6.28;;;10.60;99.90;;;;;;4985694;28;20023;-67
2023/10/25 09:38:22;;;;;;;12.40;3.35;;;10.50;99.90;;;;;;4986872;28;20053;-67
2023/10/25 09:40:50;;;;;;;6.97;2.72;;;10.50;99.90;;;;;;4988372;28;20026;-67
2023/10/25 09:43:20;;;;;;;3.15;2.20;;;10.60;99.90;;;;;;4982909;28;20124;-67
2023/10/25 09:45:53;;;;;;;7.57;2.83;;;10.60;99.90;;;;;;4994631;28;20031;-67
2023/10/25 09:48:20;;;;;;;4.53;2.70;;;10.70;99.90;;;;;;4985254;28;20032;-67
2023/10/25 09:51:12;;;;;;;5.07;3.08;;;10.70;99.90;;;;;;4989108;28;20042;-67
2023/10/25 09:53:56;;;;;;;7.38;4.57;;;10.70;99.90;;;;;;5017735;28;20045;-67
2023/10/25 09:56:22;;;;;;;;;;;10.80;99.90;;;;;;5018491;28;20230;-68
2023/10/25 09:58:48;;;;;;;4.65;3.05;;;10.90;99.90;;;;;;5016396;28;20015;-67
2023/10/25 10:01:14;;;;;;;9.07;2.75;;;10.90;99.90;;;;;;5016990;28;20029;-67
2023/10/25 10:03:48;;;;;;;5.10;2.47;;;10.80;99.90;;;;;;5018008;28;20037;-68
2023/10/25 10:06:46;;;;;;;4.82;2.40;;;10.80;99.90;;;;;;5015834;28;20030;-67
2023/10/25 10:09:27;;;;;;;3.70;2.58;;;10.80;99.90;;;;;;5015425;28;20124;-67
2023/10/25 10:12:03;;;;;;;4.18;2.42;;;10.80;99.90;;;;;;5014874;28;20048;-67
2023/10/25 10:14:28;;;;;;;14.25;8.38;;;10.70;99.90;;;;;;5017779;28;20021;-67
2023/10/25 10:16:59;;;;;;;32.53;19.20;;;10.80;99.90;;;;;;5018432;28;20140;-67
2023/10/25 10:19:24;;;;;;;16.70;10.95;;;10.80;99.90;;;;;;5017700;28;20395;-68
2023/10/25 10:22:04;;;;;;;8.40;4.95;;;10.80;99.90;;;;;;5018306;28;20018;-67
2023/10/25 10:24:42;;;;;;;7.25;5.35;;;10.80;99.90;;;;;;4999583;28;20553;-67
2023/10/25 10:27:11;;;;;;;4.25;2.35;;;10.70;99.90;;;;;;5020630;28;20029;-67
2023/10/25 10:29:39;;;;;;;3.58;1.90;;;10.70;99.90;;;;;;5018191;28;20034;-67
2023/10/25 10:32:07;;;;;;;4.05;2.20;;;10.70;99.90;;;;;;5019248;28;20025;-67
2023/10/25 10:34:47;;;;;;;4.13;2.35;;;10.70;99.90;;;;;;5015702;28;20022;-67
2023/10/25 10:37:17;;;;;;;3.67;2.53;;;10.70;99.90;;;;;;5017830;28;20033;-66
2023/10/25 10:39:58;;;;;;;5.90;2.75;;;10.60;99.90;;;;;;5017117;28;20101;-67
2023/10/25 10:42:30;;;;;;;7.07;3.50;;;10.60;99.90;;;;;;5019328;28;20037;-67
2023/10/25 10:45:01;;;;;;;32.13;15.63;;;10.50;99.90;;;;;;5017599;28;20498;-68
2023/10/25 10:47:41;;;;;;;11.55;7.65;;;10.50;99.90;;;;;;5034195;28;20434;-68
2023/10/25 10:50:12;;;;;;;9.60;5.47;;;10.50;99.90;;;;;;5018022;28;20057;-68
2023/10/25 10:52:39;;;;;;;6.07;4.18;;;10.40;99.90;;;;;;5018655;28;20036;-68
2023/10/25 10:55:06;;;;;;;6.47;3.47;;;10.40;99.90;;;;;;5016378;28;20057;-67
2023/10/25 10:57:31;;;;;;;8.35;4.25;;;10.40;99.90;;;;;;5014522;28;20034;-67
2023/10/25 10:59:57;;;;;;;5.63;3.75;;;10.40;99.90;;;;;;5017720;28;20033;-67
2023/10/25 11:02:25;;;;;;;6.32;4.35;;;10.30;99.90;;;;;;5017846;28;20029;-68
2023/10/25 11:04:50;;;;;;;8.63;5.13;;;10.30;99.90;;;;;;5015654;28;20403;-67
2023/10/25 11:07:17;;;;;;;8.93;4.75;;;10.30;99.90;;;;;;5015803;28;20025;-67
2023/10/25 11:09:43;;;;;;;4.80;2.95;;;10.30;99.90;;;;;;5019785;28;20037;-67
2023/10/25 11:12:14;;;;;;;5.13;3.22;;;10.30;99.90;;;;;;5015865;28;20167;-67
2023/10/25 11:14:45;;;;;;;6.07;4.03;;;10.30;99.90;;;;;;5016053;28;20029;-67
2023/10/25 11:17:11;;;;;;;5.25;3.67;;;10.20;99.90;;;;;;5017294;28;20033;-67
2023/10/25 11:19:37;;;;;;;5.40;3.25;;;10.20;99.90;;;;;;5017753;28;20041;-67
2023/10/25 11:22:02;;;;;;;8.10;3.67;;;10.20;99.90;;;;;;5017635;28;20718;-67
2023/10/25 11:24:28;;;;;;;7.65;3.70;;;10.20;99.90;;;;;;5001564;28;20137;-67
2023/10/25 11:26:54;;;;;;;9.00;3.90;;;10.20;99.90;;;;;;5016340;28;20022;-68
2023/10/25 11:29:23;;;;;;;6.30;3.58;;;10.20;99.90;;;;;;5017777;28;20026;-68
2023/10/25 11:31:50;;;;;;;5.63;3.88;;;10.20;99.90;;;;;;5017016;28;20491;-67
2023/10/25 11:34:21;;;;;;;6.07;4.32;;;10.20;99.90;;;;;;5018726;28;20107;-67
2023/10/25 11:36:47;;;;;;;8.65;4.47;;;10.20;99.90;;;;;;5018244;28;20069;-67
2023/10/25 11:39:13;;;;;;;8.82;4.45;;;10.20;99.90;;;;;;5017581;28;20036;-67
2023/10/25 11:41:39;;;;;;;14.73;8.77;;;10.20;99.90;;;;;;5014905;28;20034;-67
2023/10/25 11:44:06;;;;;;;15.07;7.90;;;10.20;99.90;;;;;;5017695;28;20397;-67
2023/10/25 11:46:41;;;;;;;38.45;22.02;;;10.20;99.90;;;;;;5016869;28;20030;-67
2023/10/25 11:49:07;;;;;;;18.20;12.07;;;10.10;99.90;;;;;;5013785;28;20040;-67
2023/10/25 11:51:34;;;;;;;8.27;5.22;;;10.20;99.90;;;;;;5016854;28;20034;-67
2023/10/25 11:54:04;;;;;;;10.18;5.82;;;10.10;99.90;;;;;;5015822;28;20037;-67
2023/10/25 11:56:30;;;;;;;7.65;4.05;;;10.10;99.90;;;;;;4967723;28;20043;-67
2023/10/25 11:58:56;;;;;;;10.32;4.60;;;10.20;99.90;;;;;;5018853;28;20068;-67
2023/10/25 12:01:22;;;;;;;9.68;5.43;;;10.10;99.90;;;;;;5015984;28;20034;-67
2023/10/25 12:03:47;;;;;;;9.43;4.80;;;10.10;99.90;;;;;;5015935;28;20041;-67
2023/10/25 12:06:13;;;;;;;8.88;4.68;;;10.10;99.90;;;;;;5015469;28;20107;-67
2023/10/25 12:08:40;;;;;;;7.47;4.95;;;10.10;99.90;;;;;;5014054;28;20032;-67
2023/10/25 12:11:10;;;;;;;10.10;4.88;;;10.20;99.90;;;;;;5014981;28;20061;-67
2023/10/25 12:13:37;;;;;;;8.07;4.97;;;10.20;99.90;;;;;;5019592;28;20029;-67
2023/10/25 12:16:02;;;;;;;8.65;4.82;;;10.20;99.90;;;;;;5017440;28;20087;-67
2023/10/25 12:18:28;;;;;;;9.18;4.72;;;10.20;99.90;;;;;;5015517;28;20503;-67
2023/10/25 12:20:54;;;;;;;6.55;4.15;;;10.30;99.90;;;;;;5017032;28;20033;-67
2023/10/25 12:23:19;;;;;;;8.57;4.07;;;10.30;99.90;;;;;;5017882;28;20418;-67
2023/10/25 12:25:45;;;;;;;8.75;3.88;;;10.30;99.90;;;;;;5002093;28;20041;-67
2023/10/25 12:28:11;;;;;;;6.18;4.60;;;10.20;99.90;;;;;;5026373;28;20032;-67
2023/10/25 12:30:37;;;;;;;6.28;3.40;;;10.20;99.90;;;;;;5022210;28;20029;-67
2023/10/25 12:33:02;;;;;;;6.45;4.03;;;10.20;99.90;;;;;;5025887;28;20033;-67
2023/10/25 12:35:28;;;;;;;11.52;7.72;;;10.20;99.90;;;;;;5024738;28;20026;-67
2023/10/25 12:37:54;;;;;;;9.30;5.13;;;10.20;99.90;;;;;;5022478;28;20030;-67
2023/10/25 12:40:19;;;;;;;5.80;3.67;;;10.30;99.90;;;;;;5021607;28;20047;-67
2023/10/25 12:42:46;;;;;;;8.95;3.75;;;10.30;99.90;;;;;;5025429;28;20503;-67
2023/10/25 12:45:11;;;;;;;6.20;3.35;;;10.30;99.90;;;;;;5022438;28;20036;-67
2023/10/25 12:47:37;;;;;;;5.75;3.13;;;10.30;99.90;;;;;;5024442;28;20025;-67